sensor_id;sensor_type;location;lat;lon;timestamp;pressure;altitude;pressure_sealevel;temperature;humidity
60437;BME280;46289;51.992;4.498;2023-09-08T00:00:50;101725.94;;;18.84;100.00
60437;BME280;46289;51.992;4.498;2023-09-08T00:02:56;101720.81;;;18.81;100.00
60437;BME280;46289;51.992;4.498;2023-09-08T00:04:59;101720.81;;;18.81;100.00
60437;BME280;46289;51.992;4.498;2023-09-08T00:07:05;101724.31;;;18.81;100.00
60437;BME280;46289;51.992;4.498;2023-09-08T00:09:10;101723.56;;;18.79;100.00
60437;BME280;46289;51.992;4.498;2023-09-08T00:11:18;101724.59;;;18.77;100.00
60437;BME280;46289;51.992;4.498;2023-09-08T00:13:23;101723.91;;;18.73;100.00
60437;BME280;46289;51.992;4.498;2023-09-08T00:15:29;101723.13;;;18.71;100.00
60437;BME280;46289;51.992;4.498;2023-09-08T00:17:34;101720.47;;;18.71;100.00
60437;BME280;46289;51.992;4.498;2023-09-08T00:19:40;101722.28;;;18.71;100.00
60437;BME280;46289;51.992;4.498;2023-09-08T00:21:43;101725.59;;;18.74;100.00
60437;BME280;46289;51.992;4.498;2023-09-08T00:23:48;101731.84;;;18.75;100.00
60437;BME280;46289;51.992;4.498;2023-09-08T00:25:55;101732.59;;;18.77;100.00
60437;BME280;46289;51.992;4.498;2023-09-08T00:28:04;101735.94;;;18.80;100.00
60437;BME280;46289;51.992;4.498;2023-09-08T00:30:10;101737.72;;;18.80;100.00
60437;BME280;46289;51.992;4.498;2023-09-08T00:32:16;101728.16;;;18.77;100.00
60437;BME280;46289;51.992;4.498;2023-09-08T00:34:21;101731.75;;;18.76;100.00
60437;BME280;46289;51.992;4.498;2023-09-08T00:36:23;101735.41;;;18.74;100.00
60437;BME280;46289;51.992;4.498;2023-09-08T00:38:29;101734.94;;;18.67;100.00
60437;BME280;46289;51.992;4.498;2023-09-08T00:40:31;101724.28;;;18.67;100.00
60437;BME280;46289;51.992;4.498;2023-09-08T00:42:37;101729.78;;;18.64;100.00
60437;BME280;46289;51.992;4.498;2023-09-08T00:44:47;101732.53;;;18.62;100.00
60437;BME280;46289;51.992;4.498;2023-09-08T00:46:52;101727.50;;;18.58;100.00
60437;BME280;46289;51.992;4.498;2023-09-08T00:48:57;101733.09;;;18.53;100.00
60437;BME280;46289;51.992;4.498;2023-09-08T00:51:03;101735.94;;;18.50;100.00
60437;BME280;46289;51.992;4.498;2023-09-08T00:53:09;101738.78;;;18.47;100.00
60437;BME280;46289;51.992;4.498;2023-09-08T00:55:14;101737.16;;;18.45;100.00
60437;BME280;46289;51.992;4.498;2023-09-08T00:57:19;101736.91;;;18.49;100.00
60437;BME280;46289;51.992;4.498;2023-09-08T00:59:25;101726.31;;;18.48;100.00
60437;BME280;46289;51.992;4.498;2023-09-08T01:01:33;101737.75;;;18.50;100.00
60437;BME280;46289;51.992;4.498;2023-09-08T01:03:39;101723.66;;;18.48;100.00
60437;BME280;46289;51.992;4.498;2023-09-08T01:05:45;101726.31;;;18.48;100.00
60437;BME280;46289;51.992;4.498;2023-09-08T01:07:52;101724.81;;;18.43;100.00
60437;BME280;46289;51.992;4.498;2023-09-08T01:10:01;101723.94;;;18.43;100.00
60437;BME280;46289;51.992;4.498;2023-09-08T01:12:08;101721.63;;;18.37;100.00
60437;BME280;46289;51.992;4.498;2023-09-08T01:14:13;101717.34;;;18.34;100.00
60437;BME280;46289;51.992;4.498;2023-09-08T01:16:22;101721.81;;;18.34;100.00
60437;BME280;46289;51.992;4.498;2023-09-08T01:18:32;101725.44;;;18.33;100.00
60437;BME280;46289;51.992;4.498;2023-09-08T01:20:48;101726.81;;;18.24;100.00
60437;BME280;46289;51.992;4.498;2023-09-08T01:23:15;101727.97;;;18.20;100.00
60437;BME280;46289;51.992;4.498;2023-09-08T01:25:25;101730.81;;;18.17;100.00
60437;BME280;46289;51.992;4.498;2023-09-08T01:27:33;101734.59;;;18.13;100.00
60437;BME280;46289;51.992;4.498;2023-09-08T01:29:38;101734.94;;;18.07;100.00
60437;BME280;46289;51.992;4.498;2023-09-08T01:31:45;101730.22;;;18.12;100.00
60437;BME280;46289;51.992;4.498;2023-09-08T01:33:51;101732.69;;;18.15;100.00
60437;BME280;46289;51.992;4.498;2023-09-08T01:35:56;101730.97;;;18.14;100.00
60437;BME280;46289;51.992;4.498;2023-09-08T01:38:01;101732.97;;;18.10;100.00
60437;BME280;46289;51.992;4.498;2023-09-08T01:40:07;101730.56;;;18.06;100.00
60437;BME280;46289;51.992;4.498;2023-09-08T01:42:16;101715.91;;;17.98;100.00
60437;BME280;46289;51.992;4.498;2023-09-08T01:44:21;101728.25;;;17.99;100.00
60437;BME280;46289;51.992;4.498;2023-09-08T01:46:26;101725.59;;;17.99;100.00
60437;BME280;46289;51.992;4.498;2023-09-08T01:48:31;101718.56;;;17.98;100.00
60437;BME280;46289;51.992;4.498;2023-09-08T01:50:37;101722.69;;;18.04;100.00
60437;BME280;46289;51.992;4.498;2023-09-08T01:52:42;101725.34;;;18.04;100.00
60437;BME280;46289;51.992;4.498;2023-09-08T01:54:47;101714.69;;;18.04;100.00
60437;BME280;46289;51.992;4.498;2023-09-08T01:56:50;101720.03;;;18.04;100.00
60437;BME280;46289;51.992;4.498;2023-09-08T01:59:00;101713.16;;;18.00;100.00
60437;BME280;46289;51.992;4.498;2023-09-08T02:01:06;101717.03;;;17.94;100.00
60437;BME280;46289;51.992;4.498;2023-09-08T02:03:11;101717.38;;;17.88;100.00
60437;BME280;46289;51.992;4.498;2023-09-08T02:05:17;101714.03;;;17.85;100.00
60437;BME280;46289;51.992;4.498;2023-09-08T02:07:20;101710.44;;;17.86;100.00
60437;BME280;46289;51.992;4.498;2023-09-08T02:09:33;101714.91;;;17.85;100.00
60437;BME280;46289;51.992;4.498;2023-09-08T02:11:38;101718.50;;;17.84;100.00
60437;BME280;46289;51.992;4.498;2023-09-08T02:13:45;101721.25;;;17.83;100.00
60437;BME280;46289;51.992;4.498;2023-09-08T02:15:52;101711.94;;;17.74;100.00
60437;BME280;46289;51.992;4.498;2023-09-08T02:17:57;101713.75;;;17.73;100.00
60437;BME280;46289;51.992;4.498;2023-09-08T02:20:03;101720.09;;;17.71;100.00
60437;BME280;46289;51.992;4.498;2023-09-08T02:22:11;101710.25;;;17.73;100.00
60437;BME280;46289;51.992;4.498;2023-09-08T02:24:16;101709.22;;;17.75;100.00
60437;BME280;46289;51.992;4.498;2023-09-08T02:26:19;101708.44;;;17.73;100.00
60437;BME280;46289;51.992;4.498;2023-09-08T02:28:27;101707.41;;;17.76;100.00
60437;BME280;46289;51.992;4.498;2023-09-08T02:30:33;101706.34;;;17.80;100.00
60437;BME280;46289;51.992;4.498;2023-09-08T02:32:41;101708.13;;;17.80;100.00
60437;BME280;46289;51.992;4.498;2023-09-08T02:34:47;101712.59;;;17.79;100.00
60437;BME280;46289;51.992;4.498;2023-09-08T02:36:51;101709.03;;;17.78;100.00
60437;BME280;46289;51.992;4.498;2023-09-08T02:38:56;101705.53;;;17.78;100.00
60437;BME280;46289;51.992;4.498;2023-09-08T02:41:02;101709.75;;;17.82;100.00
60437;BME280;46289;51.992;4.498;2023-09-08T02:43:06;101708.19;;;17.78;100.00
60437;BME280;46289;51.992;4.498;2023-09-08T02:45:15;101706.47;;;17.77;100.00
60437;BME280;46289;51.992;4.498;2023-09-08T02:47:21;101703.72;;;17.78;100.00
60437;BME280;46289;51.992;4.498;2023-09-08T02:49:30;101704.69;;;17.77;100.00
60437;BME280;46289;51.992;4.498;2023-09-08T02:51:35;101706.47;;;17.77;100.00
60437;BME280;46289;51.992;4.498;2023-09-08T02:53:44;101703.69;;;17.80;100.00
60437;BME280;46289;51.992;4.498;2023-09-08T02:55:46;101698.47;;;17.77;100.00
60437;BME280;46289;51.992;4.498;2023-09-08T02:57:51;101700.81;;;17.67;100.00
60437;BME280;46289;51.992;4.498;2023-09-08T02:59:57;101696.53;;;17.65;100.00
60437;BME280;46289;51.992;4.498;2023-09-08T03:02:02;101697.56;;;17.62;100.00
60437;BME280;46289;51.992;4.498;2023-09-08T03:04:08;101694.97;;;17.61;100.00
60437;BME280;46289;51.992;4.498;2023-09-08T03:06:19;101691.53;;;17.59;100.00
60437;BME280;46289;51.992;4.498;2023-09-08T03:08:25;101694.91;;;17.62;100.00
60437;BME280;46289;51.992;4.498;2023-09-08T03:10:27;101698.50;;;17.61;100.00
60437;BME280;46289;51.992;4.498;2023-09-08T03:12:36;101700.31;;;17.61;100.00
60437;BME280;46289;51.992;4.498;2023-09-08T03:14:42;101694.97;;;17.61;100.00
60437;BME280;46289;51.992;4.498;2023-09-08T03:16:48;101689.06;;;17.55;100.00
60437;BME280;46289;51.992;4.498;2023-09-08T03:18:56;101703.66;;;17.48;100.00
60437;BME280;46289;51.992;4.498;2023-09-08T03:21:01;101701.16;;;17.45;100.00
60437;BME280;46289;51.992;4.498;2023-09-08T03:23:14;101700.06;;;17.49;100.00
60437;BME280;46289;51.992;4.498;2023-09-08T03:25:19;101700.13;;;17.48;100.00
60437;BME280;46289;51.992;4.498;2023-09-08T03:27:25;101703.91;;;17.44;100.00
60437;BME280;46289;51.992;4.498;2023-09-08T03:29:30;101694.38;;;17.40;100.00
60437;BME280;46289;51.992;4.498;2023-09-08T03:31:35;101698.84;;;17.39;100.00
60437;BME280;46289;51.992;4.498;2023-09-08T03:33:41;101692.75;;;17.37;100.00
60437;BME280;46289;51.992;4.498;2023-09-08T03:35:47;101691.97;;;17.35;100.00
60437;BME280;46289;51.992;4.498;2023-09-08T03:37:49;101690.38;;;17.32;100.00
60437;BME280;46289;51.992;4.498;2023-09-08T03:39:59;101687.88;;;17.29;100.00
60437;BME280;46289;51.992;4.498;2023-09-08T03:42:07;101685.38;;;17.26;100.00
60437;BME280;46289;51.992;4.498;2023-09-08T03:44:12;101686.09;;;17.30;100.00
60437;BME280;46289;51.992;4.498;2023-09-08T03:46:17;101679.88;;;17.29;100.00
60437;BME280;46289;51.992;4.498;2023-09-08T03:48:23;101681.63;;;17.30;100.00
60437;BME280;46289;51.992;4.498;2023-09-08T03:50:29;101684.19;;;17.32;100.00
60437;BME280;46289;51.992;4.498;2023-09-08T03:52:34;101681.53;;;17.32;100.00
60437;BME280;46289;51.992;4.498;2023-09-08T03:54:40;101676.13;;;17.33;100.00
60437;BME280;46289;51.992;4.498;2023-09-08T03:56:47;101678.00;;;17.31;100.00
60437;BME280;46289;51.992;4.498;2023-09-08T03:58:52;101681.09;;;17.24;100.00
60437;BME280;46289;51.992;4.498;2023-09-08T04:00:57;101680.59;;;17.17;100.00
60437;BME280;46289;51.992;4.498;2023-09-08T04:03:03;101675.69;;;17.09;100.00
60437;BME280;46289;51.992;4.498;2023-09-08T04:05:09;101689.22;;;17.05;100.00
60437;BME280;46289;51.992;4.498;2023-09-08T04:07:15;101682.88;;;17.07;100.00
60437;BME280;46289;51.992;4.498;2023-09-08T04:09:20;101687.41;;;17.05;100.00
60437;BME280;46289;51.992;4.498;2023-09-08T04:11:25;101687.41;;;17.05;100.00
60437;BME280;46289;51.992;4.498;2023-09-08T04:13:33;101686.50;;;17.06;100.00
60437;BME280;46289;51.992;4.498;2023-09-08T04:15:39;101689.03;;;17.08;100.00
60437;BME280;46289;51.992;4.498;2023-09-08T04:17:43;101679.28;;;17.08;100.00
60437;BME280;46289;51.992;4.498;2023-09-08T04:19:50;101694.28;;;17.09;100.00
60437;BME280;46289;51.992;4.498;2023-09-08T04:21:57;101689.88;;;17.08;100.00
60437;BME280;46289;51.992;4.498;2023-09-08T04:24:02;101689.16;;;17.06;100.00
60437;BME280;46289;51.992;4.498;2023-09-08T04:26:08;101685.53;;;17.07;100.00
60437;BME280;46289;51.992;4.498;2023-09-08T04:28:14;101684.84;;;17.04;100.00
60437;BME280;46289;51.992;4.498;2023-09-08T04:30:21;101681.41;;;17.02;100.00
60437;BME280;46289;51.992;4.498;2023-09-08T04:32:27;101686.03;;;16.98;100.00
60437;BME280;46289;51.992;4.498;2023-09-08T04:34:32;101684.25;;;16.99;100.00
60437;BME280;46289;51.992;4.498;2023-09-08T04:36:38;101685.88;;;17.01;100.00
60437;BME280;46289;51.992;4.498;2023-09-08T04:38:43;101690.41;;;16.99;100.00
60437;BME280;46289;51.992;4.498;2023-09-08T04:40:48;101683.38;;;16.98;100.00
60437;BME280;46289;51.992;4.498;2023-09-08T04:42:56;101684.31;;;16.97;100.00
60437;BME280;46289;51.992;4.498;2023-09-08T04:45:00;101694.94;;;16.97;100.00
60437;BME280;46289;51.992;4.498;2023-09-08T04:47:08;101697.75;;;16.94;100.00
60437;BME280;46289;51.992;4.498;2023-09-08T04:49:13;101698.84;;;16.90;100.00
60437;BME280;46289;51.992;4.498;2023-09-08T04:51:15;101692.00;;;16.86;100.00
60437;BME280;46289;51.992;4.498;2023-09-08T04:53:21;101692.91;;;16.85;100.00
60437;BME280;46289;51.992;4.498;2023-09-08T04:55:26;101691.22;;;16.84;100.00
60437;BME280;46289;51.992;4.498;2023-09-08T04:57:31;101683.44;;;16.81;100.00
60437;BME280;46289;51.992;4.498;2023-09-08T04:59:39;101687.13;;;16.77;100.00
60437;BME280;46289;51.992;4.498;2023-09-08T05:01:55;101691.59;;;16.76;100.00
60437;BME280;46289;51.992;4.498;2023-09-08T05:04:12;101692.63;;;16.74;100.00
60437;BME280;46289;51.992;4.498;2023-09-08T05:06:45;101695.44;;;16.71;100.00
60437;BME280;46289;51.992;4.498;2023-09-08T05:09:12;101694.47;;;16.72;100.00
60437;BME280;46289;51.992;4.498;2023-09-08T05:11:45;101695.50;;;16.69;100.00
60437;BME280;46289;51.992;4.498;2023-09-08T05:13:50;101701.81;;;16.66;100.00
60437;BME280;46289;51.992;4.498;2023-09-08T05:15:59;101694.81;;;16.65;100.00
60437;BME280;46289;51.992;4.498;2023-09-08T05:18:19;101695.94;;;16.61;100.00
60437;BME280;46289;51.992;4.498;2023-09-08T05:20:35;101697.69;;;16.61;100.00
60437;BME280;46289;51.992;4.498;2023-09-08T05:22:47;101699.59;;;16.59;100.00
60437;BME280;46289;51.992;4.498;2023-09-08T05:25:06;101692.72;;;16.55;100.00
60437;BME280;46289;51.992;4.498;2023-09-08T05:27:19;101703.09;;;16.59;100.00
60437;BME280;46289;51.992;4.498;2023-09-08T05:29:44;101705.91;;;16.56;100.00
60437;BME280;46289;51.992;4.498;2023-09-08T05:31:49;101698.25;;;16.67;100.00
60437;BME280;46289;51.992;4.498;2023-09-08T05:33:56;101704.00;;;16.76;100.00
60437;BME280;46289;51.992;4.498;2023-09-08T05:36:14;101705.69;;;16.78;100.00
60437;BME280;46289;51.992;4.498;2023-09-08T05:38:31;101707.09;;;16.85;100.00
60437;BME280;46289;51.992;4.498;2023-09-08T05:41:00;101708.78;;;16.86;100.00
60437;BME280;46289;51.992;4.498;2023-09-08T05:49:51;101713.56;;;17.29;100.00
60437;BME280;46289;51.992;4.498;2023-09-08T05:56:10;101716.06;;;17.64;100.00
60437;BME280;46289;51.992;4.498;2023-09-08T05:58:44;101712.59;;;17.79;100.00
60437;BME280;46289;51.992;4.498;2023-09-08T06:00:56;101717.97;;;17.93;100.00
60437;BME280;46289;51.992;4.498;2023-09-08T06:03:24;101724.31;;;18.07;100.00
60437;BME280;46289;51.992;4.498;2023-09-08T06:05:35;101713.91;;;18.18;100.00
60437;BME280;46289;51.992;4.498;2023-09-08T06:07:46;101725.72;;;18.28;100.00
60437;BME280;46289;51.992;4.498;2023-09-08T06:10:08;101722.16;;;18.43;100.00
60437;BME280;46289;51.992;4.498;2023-09-08T06:12:13;101722.44;;;18.53;100.00
60437;BME280;46289;51.992;4.498;2023-09-08T06:14:18;101723.41;;;18.67;100.00
60437;BME280;46289;51.992;4.498;2023-09-08T06:16:27;101728.16;;;18.77;100.00
60437;BME280;46289;51.992;4.498;2023-09-08T06:18:32;101733.56;;;18.90;100.00
60437;BME280;46289;51.992;4.498;2023-09-08T06:20:48;101731.38;;;18.97;100.00
60437;BME280;46289;51.992;4.498;2023-09-08T06:22:55;101731.47;;;19.10;100.00
60437;BME280;46289;51.992;4.498;2023-09-08T06:25:00;101730.03;;;19.18;100.00
60437;BME280;46289;51.992;4.498;2023-09-08T06:27:05;101721.47;;;19.27;100.00
60437;BME280;46289;51.992;4.498;2023-09-08T06:29:11;101728.47;;;19.43;100.00
60437;BME280;46289;51.992;4.498;2023-09-08T06:31:13;101721.06;;;19.48;100.00
60437;BME280;46289;51.992;4.498;2023-09-08T06:33:18;101717.81;;;19.57;100.00
60437;BME280;46289;51.992;4.498;2023-09-08T06:35:27;101719.97;;;19.65;100.00
60437;BME280;46289;51.992;4.498;2023-09-08T06:37:37;101720.16;;;19.76;100.00
60437;BME280;46289;51.992;4.498;2023-09-08T06:39:43;101718.16;;;19.80;99.09
60437;BME280;46289;51.992;4.498;2023-09-08T06:41:49;101727.47;;;19.87;99.79
60437;BME280;46289;51.992;4.498;2023-09-08T06:43:56;101722.19;;;20.00;99.46
60437;BME280;46289;51.992;4.498;2023-09-08T06:46:01;101725.41;;;20.05;98.11
60437;BME280;46289;51.992;4.498;2023-09-08T06:48:06;101725.03;;;20.24;98.38
60437;BME280;46289;51.992;4.498;2023-09-08T06:50:09;101724.84;;;20.39;97.74
60437;BME280;46289;51.992;4.498;2023-09-08T06:52:14;101728.66;;;20.63;96.35
60437;BME280;46289;51.992;4.498;2023-09-08T06:54:22;101728.31;;;20.80;96.55
60437;BME280;46289;51.992;4.498;2023-09-08T06:56:28;101721.38;;;20.90;95.39
60437;BME280;46289;51.992;4.498;2023-09-08T06:58:33;101725.78;;;21.04;94.21
60437;BME280;46289;51.992;4.498;2023-09-08T07:00:39;101731.06;;;21.17;94.13
60437;BME280;46289;51.992;4.498;2023-09-08T07:02:47;101728.94;;;21.22;93.11
60437;BME280;46289;51.992;4.498;2023-09-08T07:04:51;101723.19;;;21.41;92.07
60437;BME280;46289;51.992;4.498;2023-09-08T07:06:57;101726.22;;;21.60;92.00
60437;BME280;46289;51.992;4.498;2023-09-08T07:09:04;101727.63;;;21.77;90.60
60437;BME280;46289;51.992;4.498;2023-09-08T07:11:13;101727.06;;;22.09;89.42
60437;BME280;46289;51.992;4.498;2023-09-08T07:13:18;101725.13;;;22.35;89.29
60437;BME280;46289;51.992;4.498;2023-09-08T07:15:24;101724.03;;;22.38;87.62
60437;BME280;46289;51.992;4.498;2023-09-08T07:17:29;101727.97;;;22.45;87.49
60437;BME280;46289;51.992;4.498;2023-09-08T07:19:38;101721.44;;;22.60;86.54
60437;BME280;46289;51.992;4.498;2023-09-08T07:21:44;101719.63;;;22.83;86.01
60437;BME280;46289;51.992;4.498;2023-09-08T07:23:59;101724.44;;;23.02;85.68
60437;BME280;46289;51.992;4.498;2023-09-08T07:26:04;101730.75;;;23.23;84.17
60437;BME280;46289;51.992;4.498;2023-09-08T07:28:12;101731.47;;;23.37;83.01
60437;BME280;46289;51.992;4.498;2023-09-08T07:30:18;101725.22;;;23.70;83.17
60437;BME280;46289;51.992;4.498;2023-09-08T07:32:23;101726.00;;;23.93;81.63
60437;BME280;46289;51.992;4.498;2023-09-08T07:34:29;101734.28;;;24.01;80.78
60437;BME280;46289;51.992;4.498;2023-09-08T07:36:35;101727.03;;;24.13;79.81
60437;BME280;46289;51.992;4.498;2023-09-08T07:38:41;101731.03;;;24.19;79.44
60437;BME280;46289;51.992;4.498;2023-09-08T07:40:50;101732.28;;;24.47;79.08
60437;BME280;46289;51.992;4.498;2023-09-08T07:42:56;101728.66;;;24.58;78.90
60437;BME280;46289;51.992;4.498;2023-09-08T07:45:05;101724.38;;;24.76;77.42
60437;BME280;46289;51.992;4.498;2023-09-08T07:47:12;101732.38;;;24.87;77.28
60437;BME280;46289;51.992;4.498;2023-09-08T07:49:17;101728.63;;;25.00;76.14
60437;BME280;46289;51.992;4.498;2023-09-08T07:51:23;101733.28;;;25.28;75.68
60437;BME280;46289;51.992;4.498;2023-09-08T07:53:28;101722.72;;;25.46;74.56
60437;BME280;46289;51.992;4.498;2023-09-08T07:55:33;101730.22;;;25.43;74.25
60437;BME280;46289;51.992;4.498;2023-09-08T07:57:42;101721.88;;;25.55;72.55
60437;BME280;46289;51.992;4.498;2023-09-08T07:59:48;101722.38;;;25.90;72.25
60437;BME280;46289;51.992;4.498;2023-09-08T08:01:56;101730.78;;;25.96;71.82
60437;BME280;46289;51.992;4.498;2023-09-08T08:04:02;101719.13;;;26.05;71.55
60437;BME280;46289;51.992;4.498;2023-09-08T08:06:07;101729.03;;;25.86;71.44
60437;BME280;46289;51.992;4.498;2023-09-08T08:08:12;101722.38;;;26.28;71.20
60437;BME280;46289;51.992;4.498;2023-09-08T08:10:18;101726.78;;;26.49;69.06
60437;BME280;46289;51.992;4.498;2023-09-08T08:12:23;101725.63;;;26.32;69.62
60437;BME280;46289;51.992;4.498;2023-09-08T08:14:26;101727.06;;;26.36;68.49
60437;BME280;46289;51.992;4.498;2023-09-08T08:16:31;101726.50;;;26.52;68.51
60437;BME280;46289;51.992;4.498;2023-09-08T08:18:39;101724.31;;;26.75;69.04
60437;BME280;46289;51.992;4.498;2023-09-08T08:20:44;101728.63;;;26.96;68.08
60437;BME280;46289;51.992;4.498;2023-09-08T08:22:48;101723.13;;;26.87;66.85
60437;BME280;46289;51.992;4.498;2023-09-08T08:24:54;101728.41;;;27.17;66.15
60437;BME280;46289;51.992;4.498;2023-09-08T08:26:59;101730.00;;;27.19;67.20
60437;BME280;46289;51.992;4.498;2023-09-08T08:29:05;101720.63;;;27.13;65.52
60437;BME280;46289;51.992;4.498;2023-09-08T08:31:10;101732.75;;;27.37;66.79
60437;BME280;46289;51.992;4.498;2023-09-08T08:33:15;101723.63;;;27.66;65.10
60437;BME280;46289;51.992;4.498;2023-09-08T08:35:26;101717.47;;;27.73;64.74
60437;BME280;46289;51.992;4.498;2023-09-08T08:37:31;101721.56;;;27.60;63.31
60437;BME280;46289;51.992;4.498;2023-09-08T08:39:37;101726.56;;;27.72;63.18
60437;BME280;46289;51.992;4.498;2023-09-08T08:41:40;101732.31;;;27.87;63.02
60437;BME280;46289;51.992;4.498;2023-09-08T08:43:47;101731.16;;;28.08;62.64
60437;BME280;46289;51.992;4.498;2023-09-08T08:45:54;101726.66;;;27.98;62.22
60437;BME280;46289;51.992;4.498;2023-09-08T08:48:01;101728.66;;;28.32;62.26
60437;BME280;46289;51.992;4.498;2023-09-08T08:50:09;101729.38;;;27.98;62.29
60437;BME280;46289;51.992;4.498;2023-09-08T08:52:19;101735.34;;;28.02;62.80
60437;BME280;46289;51.992;4.498;2023-09-08T08:54:28;101733.94;;;28.52;63.01
60437;BME280;46289;51.992;4.498;2023-09-08T08:56:35;101737.72;;;28.67;60.90
60437;BME280;46289;51.992;4.498;2023-09-08T08:58:41;101735.94;;;28.50;61.31
60437;BME280;46289;51.992;4.498;2023-09-08T09:00:47;101733.00;;;28.69;60.17
60437;BME280;46289;51.992;4.498;2023-09-08T09:02:52;101735.81;;;28.85;60.43
60437;BME280;46289;51.992;4.498;2023-09-08T09:05:15;101728.44;;;29.30;59.72
60437;BME280;46289;51.992;4.498;2023-09-08T09:07:23;101730.78;;;29.25;59.68
60437;BME280;46289;51.992;4.498;2023-09-08T09:09:32;101732.16;;;28.95;58.99
60437;BME280;46289;51.992;4.498;2023-09-08T09:11:37;101734.16;;;28.93;58.92
60437;BME280;46289;51.992;4.498;2023-09-08T09:13:42;101732.16;;;29.21;58.08
60437;BME280;46289;51.992;4.498;2023-09-08T09:15:48;101741.91;;;29.56;58.33
60437;BME280;46289;51.992;4.498;2023-09-08T09:18:02;101731.72;;;29.42;57.29
60437;BME280;46289;51.992;4.498;2023-09-08T09:20:13;101731.91;;;29.57;58.05
60437;BME280;46289;51.992;4.498;2023-09-08T09:22:22;101730.91;;;29.58;57.24
60437;BME280;46289;51.992;4.498;2023-09-08T09:24:32;101737.09;;;29.76;55.82
60437;BME280;46289;51.992;4.498;2023-09-08T09:26:39;101728.47;;;29.97;54.76
60437;BME280;46289;51.992;4.498;2023-09-08T09:28:47;101733.22;;;30.19;55.86
60437;BME280;46289;51.992;4.498;2023-09-08T09:30:56;101732.03;;;29.89;54.05
60437;BME280;46289;51.992;4.498;2023-09-08T09:33:03;101731.00;;;29.90;55.81
60437;BME280;46289;51.992;4.498;2023-09-08T09:35:10;101730.16;;;30.23;54.91
60437;BME280;46289;51.992;4.498;2023-09-08T09:37:15;101733.41;;;30.51;55.34
60437;BME280;46289;51.992;4.498;2023-09-08T09:39:24;101726.63;;;30.47;54.58
60437;BME280;46289;51.992;4.498;2023-09-08T09:41:29;101727.78;;;30.69;53.66
60437;BME280;46289;51.992;4.498;2023-09-08T09:43:38;101726.97;;;30.44;53.04
60437;BME280;46289;51.992;4.498;2023-09-08T09:45:43;101726.09;;;30.59;52.95
60437;BME280;46289;51.992;4.498;2023-09-08T09:47:48;101726.53;;;30.96;53.40
60437;BME280;46289;51.992;4.498;2023-09-08T09:50:00;101731.84;;;31.28;51.96
60437;BME280;46289;51.992;4.498;2023-09-08T09:52:05;101720.88;;;31.14;50.70
60437;BME280;46289;51.992;4.498;2023-09-08T09:54:08;101722.59;;;31.46;50.45
60437;BME280;46289;51.992;4.498;2023-09-08T09:56:17;101720.13;;;31.28;51.69
60437;BME280;46289;51.992;4.498;2023-09-08T09:58:27;101722.50;;;31.39;51.49
60437;BME280;46289;51.992;4.498;2023-09-08T10:00:35;101721.03;;;31.20;51.85
60437;BME280;46289;51.992;4.498;2023-09-08T10:02:41;101713.47;;;30.91;51.38
60437;BME280;46289;51.992;4.498;2023-09-08T10:04:48;101717.31;;;31.13;51.35
60437;BME280;46289;51.992;4.498;2023-09-08T10:06:55;101719.16;;;31.21;52.10
60437;BME280;46289;51.992;4.498;2023-09-08T10:09:01;101717.81;;;31.17;52.49
60437;BME280;46289;51.992;4.498;2023-09-08T10:11:07;101711.53;;;31.56;52.05
60437;BME280;46289;51.992;4.498;2023-09-08T10:13:21;101709.78;;;31.86;50.01
60437;BME280;46289;51.992;4.498;2023-09-08T10:15:28;101711.63;;;32.17;50.97
60437;BME280;46289;51.992;4.498;2023-09-08T10:17:36;101721.50;;;31.95;50.78
60437;BME280;46289;51.992;4.498;2023-09-08T10:19:44;101722.16;;;32.34;49.87
60437;BME280;46289;51.992;4.498;2023-09-08T10:21:57;101722.03;;;32.51;47.54
60437;BME280;46289;51.992;4.498;2023-09-08T10:24:13;101725.03;;;32.18;48.46
60437;BME280;46289;51.992;4.498;2023-09-08T10:26:22;101722.22;;;31.80;49.54
60437;BME280;46289;51.992;4.498;2023-09-08T10:28:36;101723.59;;;32.07;49.09
60437;BME280;46289;51.992;4.498;2023-09-08T10:30:44;101726.25;;;32.16;49.00
60437;BME280;46289;51.992;4.498;2023-09-08T10:32:51;101715.47;;;32.22;48.02
60437;BME280;46289;51.992;4.498;2023-09-08T10:34:57;101720.53;;;32.48;48.39
60437;BME280;46289;51.992;4.498;2023-09-08T10:37:18;101716.59;;;32.28;49.04
60437;BME280;46289;51.992;4.498;2023-09-08T10:39:33;101723.44;;;31.55;49.75
60437;BME280;46289;51.992;4.498;2023-09-08T10:41:41;101716.91;;;31.95;49.40
60437;BME280;46289;51.992;4.498;2023-09-08T10:44:02;101716.13;;;32.24;49.29
60437;BME280;46289;51.992;4.498;2023-09-08T10:46:08;101717.97;;;32.47;47.36
60437;BME280;46289;51.992;4.498;2023-09-08T10:48:14;101714.63;;;32.22;48.23
60437;BME280;46289;51.992;4.498;2023-09-08T10:50:26;101708.00;;;32.39;47.68
60437;BME280;46289;51.992;4.498;2023-09-08T10:52:29;101708.66;;;32.03;47.45
60437;BME280;46289;51.992;4.498;2023-09-08T10:54:48;101711.38;;;32.03;47.99
60437;BME280;46289;51.992;4.498;2023-09-08T10:56:56;101711.22;;;32.05;49.74
60437;BME280;46289;51.992;4.498;2023-09-08T10:59:05;101710.03;;;32.22;47.31
60437;BME280;46289;51.992;4.498;2023-09-08T11:01:13;101713.47;;;31.70;48.31
60437;BME280;46289;51.992;4.498;2023-09-08T11:03:27;101716.47;;;31.52;48.16
60437;BME280;46289;51.992;4.498;2023-09-08T11:05:31;101714.28;;;31.79;48.11
60437;BME280;46289;51.992;4.498;2023-09-08T11:07:37;101715.53;;;31.91;47.41
60437;BME280;46289;51.992;4.498;2023-09-08T11:09:45;101717.72;;;31.96;48.01
60437;BME280;46289;51.992;4.498;2023-09-08T11:11:50;101715.31;;;32.39;47.08
60437;BME280;46289;51.992;4.498;2023-09-08T11:13:57;101711.63;;;32.17;47.53